Time;durP1;ratioP1;P1;durP2;ratioP2;P2;SDS_P1;SDS_P2;PMS_P1;PMS_P2;Temp;Humidity;BMP_temperature;BMP_pressure;BME280_temperature;BME280_humidity;BME280_pressure;Samples;Min_cycle;Max_cycle;Signal;HPM_P1;HPM_P2
2023/11/10 00:00:41;;;;;;;;;;;;;;;20.61;59.41;101351.31;7397490;19;1376;-43
2023/11/10 00:03:09;;;;;;;;;;;;;;;20.52;59.31;101347.56;7397131;19;1922;-43
2023/11/10 00:05:38;;;;;;;;;;;;;;;20.55;59.05;101347.31;7396134;19;1518;-43
2023/11/10 00:08:13;;;;;;;;;;;;;;;20.62;59.33;101340.44;7395774;19;1729;-43
2023/11/10 00:10:41;;;;;;;;;;;;;;;20.54;59.24;101340.22;7394830;19;1855;-43
2023/11/10 00:13:10;;;;;;;;;;;;;;;20.48;59.19;101346.13;7396324;19;1463;-43
2023/11/10 00:15:38;;;;;;;;;;;;;;;20.52;59.34;101338.66;7395721;19;1557;-43
2023/11/10 00:18:06;;;;;;;;;;;;;;;20.57;59.33;101350.72;7396913;19;1870;-42
2023/11/10 00:20:36;;;;;;;;;;;;;;;20.57;59.23;101348.03;7395970;19;1505;-43
2023/11/10 00:23:05;;;;;;;;;;;;;;;20.46;59.22;101340.03;7395752;19;1498;-42
2023/11/10 00:25:36;;;;;;;;;;;;;;;20.56;58.74;101332.88;7395854;19;1815;-42
2023/11/10 00:28:05;;;;;;;;;;;;;;;20.50;59.29;101328.03;7395771;19;1755;-42
2023/11/10 00:30:34;;;;;;;;;;;;;;;20.47;59.11;101322.91;7394044;19;1865;-43
2023/11/10 00:33:02;;;;;;;;;;;;;;;20.55;59.04;101331.19;7395562;19;1597;-42
2023/11/10 00:35:31;;;;;;;;;;;;;;;20.48;59.23;101340.75;7394718;19;1586;-42
2023/11/10 00:37:59;;;;;;;;;;;;;;;20.53;59.11;101330.47;7395633;19;1555;-43
2023/11/10 00:40:27;;;;;;;;;;;;;;;20.51;58.83;101335.09;7380163;19;1578;-43
2023/11/10 00:42:58;;;;;;;;;;;;;;;20.52;59.04;101325.25;7394812;19;1419;-42
2023/11/10 00:45:26;;;;;;;;;;;;;;;20.43;59.19;101337.59;7394790;19;1396;-43
2023/11/10 00:47:55;;;;;;;;;;;;;;;20.44;59.51;101339.31;7394612;19;1466;-42
2023/11/10 00:50:23;;;;;;;;;;;;;;;20.43;59.04;101333.09;7395343;19;1869;-42
2023/11/10 00:52:52;;;;;;;;;;;;;;;20.46;59.14;101329.28;7396242;19;1959;-43
2023/11/10 00:55:21;;;;;;;;;;;;;;;20.51;58.90;101332.41;7395441;19;1360;-43
2023/11/10 00:57:49;;;;;;;;;;;;;;;20.54;59.10;101318.75;7395102;19;1823;-43
2023/11/10 01:00:21;;;;;;;;;;;;;;;20.54;59.17;101308.00;7394173;19;1567;-43
2023/11/10 01:02:50;;;;;;;;;;;;;;;20.52;58.83;101299.22;7394062;19;1591;-42
2023/11/10 01:05:20;;;;;;;;;;;;;;;20.53;58.89;101295.56;7393810;19;1552;-43
2023/11/10 01:07:49;;;;;;;;;;;;;;;20.47;58.99;101298.75;7395407;19;1508;-43
2023/11/10 01:10:17;;;;;;;;;;;;;;;20.44;59.04;101281.06;7394128;19;1849;-42
2023/11/10 01:12:46;;;;;;;;;;;;;;;20.46;59.29;101294.38;7394654;19;1613;-43
2023/11/10 01:15:15;;;;;;;;;;;;;;;20.48;58.90;101284.34;7393883;19;1366;-42
2023/11/10 01:17:47;;;;;;;;;;;;;;;20.44;58.96;101281.06;7394411;19;1724;-42
2023/11/10 01:20:15;;;;;;;;;;;;;;;19.96;59.12;101211.78;7394144;19;1555;-43
2023/11/10 01:22:43;;;;;;;;;;;;;;;20.39;59.02;101267.19;7393171;19;1818;-42
2023/11/10 01:25:13;;;;;;;;;;;;;;;20.39;59.10;101283.31;7393787;19;1847;-42
2023/11/10 01:27:42;;;;;;;;;;;;;;;20.40;59.09;101282.31;7392760;19;1914;-42
2023/11/10 01:30:12;;;;;;;;;;;;;;;20.42;58.91;101271.44;7390987;19;2381;-43
2023/11/10 01:32:41;;;;;;;;;;;;;;;20.43;58.99;101255.19;7391076;19;1848;-42
2023/11/10 01:35:13;;;;;;;;;;;;;;;20.44;58.87;101277.53;7393533;19;1511;-42
2023/11/10 01:37:42;;;;;;;;;;;;;;;20.47;58.82;101274.56;7392674;19;1533;-42
2023/11/10 01:40:11;;;;;;;;;;;;;;;20.37;59.04;101273.66;7378648;19;1482;-42
2023/11/10 01:42:39;;;;;;;;;;;;;;;20.40;58.91;101278.78;7392208;19;1487;-42
2023/11/10 01:45:10;;;;;;;;;;;;;;;20.35;58.99;101272.94;7393815;19;1479;-42
2023/11/10 01:47:39;;;;;;;;;;;;;;;20.36;58.94;101282.72;7393171;19;1417;-42
2023/11/10 01:50:10;;;;;;;;;;;;;;;20.28;59.07;101264.56;7393760;19;1468;-43
2023/11/10 01:52:42;;;;;;;;;;;;;;;20.35;58.88;101275.63;7392784;19;1842;-43
2023/11/10 01:55:11;;;;;;;;;;;;;;;20.29;59.15;101276.16;7392874;19;1705;-43
2023/11/10 01:57:40;;;;;;;;;;;;;;;20.27;59.29;101274.47;7392427;19;1665;-43
2023/11/10 02:00:09;;;;;;;;;;;;;;;20.35;58.94;101272.94;7391684;19;1448;-43
2023/11/10 02:02:37;;;;;;;;;;;;;;;20.32;59.07;101276.75;7392109;19;1824;-42
2023/11/10 02:05:07;;;;;;;;;;;;;;;20.31;58.94;101275.03;7391826;19;1534;-43
2023/11/10 02:07:36;;;;;;;;;;;;;;;20.35;59.08;101264.88;7392349;19;1492;-42
2023/11/10 02:10:07;;;;;;;;;;;;;;;20.43;58.75;101273.13;7394080;19;1480;-43
2023/11/10 02:12:36;;;;;;;;;;;;;;;20.39;58.67;101272.56;7391009;19;1860;-43
2023/11/10 02:15:06;;;;;;;;;;;;;;;20.43;58.45;101268.63;7393163;19;1476;-43
2023/11/10 02:17:36;;;;;;;;;;;;;;;20.46;58.53;101251.38;7392075;19;1477;-43
2023/11/10 02:20:05;;;;;;;;;;;;;;;20.42;58.52;101268.75;7392856;19;1649;-43
2023/11/10 02:22:33;;;;;;;;;;;;;;;20.36;58.81;101263.91;7392815;19;1816;-43
2023/11/10 02:25:03;;;;;;;;;;;;;;;20.68;58.35;101265.69;7392049;19;1923;-42
2023/11/10 02:27:34;;;;;;;;;;;;;;;21.03;57.51;101255.34;7391661;19;1495;-42
2023/11/10 02:30:03;;;;;;;;;;;;;;;21.61;56.14;101243.00;7391946;19;1644;-42
2023/11/10 02:32:32;;;;;;;;;;;;;;;22.24;54.48;101246.09;7390073;19;2789;-43
2023/11/10 02:35:00;;;;;;;;;;;;;;;22.18;54.85;101241.25;7392290;19;1466;-43
2023/11/10 02:37:28;;;;;;;;;;;;;;;22.20;54.68;101247.34;7392114;19;1499;-42
2023/11/10 02:39:56;;;;;;;;;;;;;;;22.37;54.40;101239.53;7376424;19;1522;-42
2023/11/10 02:42:25;;;;;;;;;;;;;;;22.37;54.24;101244.94;7391699;19;1471;-43
2023/11/10 02:44:56;;;;;;;;;;;;;;;22.38;53.99;101234.00;7393346;19;1578;-43
2023/11/10 02:47:24;;;;;;;;;;;;;;;22.36;54.01;101225.22;7391914;19;1512;-43
2023/11/10 02:49:53;;;;;;;;;;;;;;;22.33;54.03;101228.19;7397820;19;1918;-42
2023/11/10 02:52:21;;;;;;;;;;;;;;;22.23;54.28;101236.28;7397654;19;1854;-43
2023/11/10 02:54:49;;;;;;;;;;;;;;;22.38;54.14;101222.34;7399779;19;1839;-42
2023/11/10 02:57:18;;;;;;;;;;;;;;;22.41;54.04;101220.22;7398862;19;1832;-43
2023/11/10 02:59:46;;;;;;;;;;;;;;;22.35;54.18;101219.97;7398913;19;1748;-43
2023/11/10 03:02:17;;;;;;;;;;;;;;;22.39;54.34;101237.53;7396896;19;2499;-42
2023/11/10 03:04:45;;;;;;;;;;;;;;;22.46;53.90;101218.94;7399251;19;1589;-43
2023/11/10 03:07:14;;;;;;;;;;;;;;;22.32;54.08;101226.50;7399471;19;1806;-43
2023/11/10 03:09:44;;;;;;;;;;;;;;;22.45;54.13;101239.66;7399289;19;1612;-43
2023/11/10 03:12:12;;;;;;;;;;;;;;;22.61;53.73;101233.63;7398270;19;1825;-43
2023/11/10 03:14:43;;;;;;;;;;;;;;;22.45;54.09;101220.78;7398924;19;1846;-43
2023/11/10 03:17:11;;;;;;;;;;;;;;;22.53;53.81;101228.97;7396939;19;1492;-42
2023/11/10 03:19:43;;;;;;;;;;;;;;;22.57;53.50;101241.16;7397148;19;1862;-43
2023/11/10 03:22:12;;;;;;;;;;;;;;;22.43;53.97;101229.00;7398221;19;1618;-43
2023/11/10 03:24:40;;;;;;;;;;;;;;;22.56;53.71;101220.63;7398054;19;1745;-44
2023/11/10 03:27:09;;;;;;;;;;;;;;;22.49;53.65;101216.81;7397332;19;1475;-43
2023/11/10 03:29:37;;;;;;;;;;;;;;;22.47;53.75;101217.94;7398092;19;1650;-43
2023/11/10 03:32:06;;;;;;;;;;;;;;;22.57;53.56;101211.50;7396708;19;1842;-43
2023/11/10 03:34:34;;;;;;;;;;;;;;;22.63;53.58;101210.91;7397093;19;1485;-43
2023/11/10 03:37:05;;;;;;;;;;;;;;;22.47;53.97;101207.16;7397381;19;1482;-43
2023/11/10 03:39:33;;;;;;;;;;;;;;;22.56;53.59;101223.31;7384275;19;1680;-43
2023/11/10 03:42:02;;;;;;;;;;;;;;;22.75;53.22;101216.13;7396583;19;1512;-43
2023/11/10 03:44:31;;;;;;;;;;;;;;;22.62;53.64;101229.94;7397862;19;1763;-42
2023/11/10 03:47:00;;;;;;;;;;;;;;;22.57;53.39;101224.16;7397164;19;1335;-43
2023/11/10 03:49:28;;;;;;;;;;;;;;;22.49;53.78;101222.19;7397175;19;1819;-42
2023/11/10 03:51:57;;;;;;;;;;;;;;;22.77;53.24;101233.00;7395946;19;1865;-43
2023/11/10 03:54:28;;;;;;;;;;;;;;;22.60;53.46;101235.50;7396195;19;1842;-42
2023/11/10 03:56:56;;;;;;;;;;;;;;;22.08;54.36;101235.03;7397098;19;1579;-43
2023/11/10 03:59:24;;;;;;;;;;;;;;;21.74;55.41;101224.72;7394947;19;1477;-42
2023/11/10 04:01:53;;;;;;;;;;;;;;;21.62;55.51;101228.53;7395696;19;1729;-43
2023/11/10 04:04:21;;;;;;;;;;;;;;;21.36;55.79;101212.06;7397534;19;1485;-43
2023/11/10 04:06:49;;;;;;;;;;;;;;;21.21;56.35;101231.31;7397055;19;1385;-43
2023/11/10 04:09:19;;;;;;;;;;;;;;;21.12;56.50;101236.69;7396426;19;1653;-43
2023/11/10 04:11:50;;;;;;;;;;;;;;;21.07;56.48;101226.34;7394359;19;1845;-43
2023/11/10 04:14:18;;;;;;;;;;;;;;;21.00;56.79;101236.78;7394720;19;1520;-43
2023/11/10 04:16:46;;;;;;;;;;;;;;;20.94;56.77;101229.25;7390901;19;1458;-43
2023/11/10 04:19:15;;;;;;;;;;;;;;;20.93;56.94;101232.09;7395891;19;1913;-43
2023/11/10 04:21:43;;;;;;;;;;;;;;;20.86;56.95;101226.41;7396494;19;1791;-43
2023/11/10 04:24:12;;;;;;;;;;;;;;;20.82;56.81;101241.13;7396805;19;1814;-43
2023/11/10 04:26:41;;;;;;;;;;;;;;;20.78;56.67;101212.81;7395814;19;1521;-43
2023/11/10 04:29:11;;;;;;;;;;;;;;;20.78;56.93;101218.19;7392742;19;1944;-43
2023/11/10 04:31:40;;;;;;;;;;;;;;;20.75;56.83;101207.69;7394309;19;1862;-43
2023/11/10 04:34:08;;;;;;;;;;;;;;;20.72;56.81;101206.13;7396338;19;1541;-43
2023/11/10 04:36:39;;;;;;;;;;;;;;;20.78;56.68;101215.50;7395954;19;1827;-43
2023/11/10 04:39:07;;;;;;;;;;;;;;;20.83;56.75;101218.59;7395479;19;1787;-43
2023/11/10 04:41:35;;;;;;;;;;;;;;;20.90;56.49;101200.94;7379952;19;1156;-43
2023/11/10 04:44:04;;;;;;;;;;;;;;;20.94;56.42;101207.75;7394709;19;1830;-43
2023/11/10 04:46:35;;;;;;;;;;;;;;;20.91;56.41;101210.72;7393292;19;1503;-42
2023/11/10 04:49:03;;;;;;;;;;;;;;;20.85;56.48;101197.84;7394236;19;1478;-43
2023/11/10 04:51:31;;;;;;;;;;;;;;;20.89;56.65;101199.28;7395121;19;1850;-43
2023/11/10 04:54:00;;;;;;;;;;;;;;;20.79;56.51;101203.75;7394407;19;1465;-43
2023/11/10 04:56:28;;;;;;;;;;;;;;;20.68;56.62;101201.19;7393015;19;1569;-42
2023/11/10 04:58:56;;;;;;;;;;;;;;;20.71;56.45;101190.13;7391746;19;1423;-43
2023/11/10 05:01:25;;;;;;;;;;;;;;;20.76;56.23;101187.91;7392814;19;1432;-43
2023/11/10 05:03:57;;;;;;;;;;;;;;;20.82;56.30;101203.47;7393999;19;1210;-43
2023/11/10 05:06:34;;;;;;;;;;;;;;;20.81;56.11;101194.56;7394064;19;1353;-43
2023/11/10 05:09:06;;;;;;;;;;;;;;;20.86;56.07;101202.22;7393012;19;1578;-43
2023/11/10 05:11:34;;;;;;;;;;;;;;;20.85;56.17;101209.44;7389826;19;1428;-43
2023/11/10 05:14:03;;;;;;;;;;;;;;;20.81;56.23;101199.06;7391659;19;1541;-43
2023/11/10 05:16:32;;;;;;;;;;;;;;;20.83;56.40;101205.16;7393854;19;1749;-43
2023/11/10 05:19:02;;;;;;;;;;;;;;;20.84;56.42;101202.34;7391800;19;1535;-42
2023/11/10 05:21:31;;;;;;;;;;;;;;;20.90;56.29;101200.94;7394286;19;1568;-43
2023/11/10 05:24:00;;;;;;;;;;;;;;;20.90;56.31;101206.34;7393495;19;1497;-42
2023/11/10 05:26:30;;;;;;;;;;;;;;;20.91;56.22;101196.41;7394996;19;1533;-43
2023/11/10 05:28:58;;;;;;;;;;;;;;;20.90;56.18;101189.34;7394414;19;1552;-42
2023/11/10 05:31:26;;;;;;;;;;;;;;;20.87;56.40;101206.63;7394746;19;1526;-42
2023/11/10 05:33:55;;;;;;;;;;;;;;;20.82;56.35;101206.16;7392235;19;1839;-43
2023/11/10 05:36:27;;;;;;;;;;;;;;;20.58;56.15;101201.09;7395153;19;1538;-42
2023/11/10 05:38:55;;;;;;;;;;;;;;;20.47;56.57;101220.84;7394551;19;1259;-43
2023/11/10 05:41:24;;;;;;;;;;;;;;;20.60;56.47;101205.38;7380245;19;1707;-43
2023/11/10 05:43:52;;;;;;;;;;;;;;;20.73;53.91;101201.59;7393996;19;1830;-43
2023/11/10 05:46:21;;;;;;;;;;;;;;;20.49;54.51;101221.56;7391857;19;1806;-43
2023/11/10 05:48:50;;;;;;;;;;;;;;;20.33;56.17;101219.34;7390551;19;1523;-43
2023/11/10 05:51:18;;;;;;;;;;;;;;;20.35;55.76;101217.41;7390703;19;1546;-42
2023/11/10 05:53:49;;;;;;;;;;;;;;;20.55;55.41;101204.91;7391191;19;1855;-42
2023/11/10 05:56:17;;;;;;;;;;;;;;;20.63;54.97;101189.00;7390690;19;1537;-42
2023/11/10 05:58:47;;;;;;;;;;;;;;;20.57;55.30;101208.31;7391709;19;1522;-42
2023/11/10 06:01:15;;;;;;;;;;;;;;;20.42;55.64;101207.81;7392286;19;1456;-42
2023/11/10 06:03:43;;;;;;;;;;;;;;;20.42;55.79;101201.59;7393878;19;1194;-42
2023/11/10 06:06:12;;;;;;;;;;;;;;;20.40;55.44;101199.03;7391757;19;1658;-42
2023/11/10 06:08:41;;;;;;;;;;;;;;;20.32;55.88;101214.13;7392841;19;1637;-42
2023/11/10 06:11:20;;;;;;;;;;;;;;;20.26;54.95;101219.03;7392328;19;1551;-43
2023/11/10 06:13:48;;;;;;;;;;;;;;;20.33;54.23;101194.34;7387888;19;1869;-42
2023/11/10 06:16:16;;;;;;;;;;;;;;;20.49;54.61;101201.91;7392560;19;1687;-42
2023/11/10 06:18:45;;;;;;;;;;;;;;;20.63;54.37;101204.25;7392597;19;1549;-42
2023/11/10 06:21:14;;;;;;;;;;;;;;;20.69;54.38;101208.25;7392497;19;1657;-42
2023/11/10 06:23:42;;;;;;;;;;;;;;;20.70;54.45;101209.94;7397636;19;1495;-42
2023/11/10 06:26:13;;;;;;;;;;;;;;;20.76;54.22;101230.91;7399944;19;1451;-42
2023/11/10 06:28:42;;;;;;;;;;;;;;;20.43;53.53;101220.28;7400698;19;1543;-42
2023/11/10 06:31:11;;;;;;;;;;;;;;;20.56;54.10;101241.53;7400255;19;1616;-42
2023/11/10 06:33:40;;;;;;;;;;;;;;;20.59;54.24;101225.19;7398453;19;1871;-42
2023/11/10 06:36:08;;;;;;;;;;;;;;;20.59;54.19;101224.31;7398476;19;1823;-42
2023/11/10 06:38:37;;;;;;;;;;;;;;;20.55;54.68;101222.84;7399706;19;1678;-42
2023/11/10 06:41:05;;;;;;;;;;;;;;;20.58;54.63;101211.84;7385669;19;1799;-42
2023/11/10 06:43:37;;;;;;;;;;;;;;;20.57;54.96;101223.56;7398450;19;1950;-42
2023/11/10 06:46:06;;;;;;;;;;;;;;;20.63;54.90;101223.94;7399041;19;1818;-42
2023/11/10 06:48:34;;;;;;;;;;;;;;;20.57;54.79;101231.63;7398126;19;1960;-42
2023/11/10 06:51:02;;;;;;;;;;;;;;;20.59;54.74;101222.50;7399475;19;1600;-42
2023/11/10 06:53:31;;;;;;;;;;;;;;;20.62;54.72;101227.59;7396338;19;1861;-42
2023/11/10 06:55:59;;;;;;;;;;;;;;;20.54;55.00;101221.16;7398904;19;1740;-42
2023/11/10 06:58:27;;;;;;;;;;;;;;;20.42;55.30;101239.22;7398354;19;1574;-45
2023/11/10 07:00:58;;;;;;;;;;;;;;;20.08;50.11;101223.31;7377637;19;1572;-45
2023/11/10 07:03:27;;;;;;;;;;;;;;;19.96;46.83;101210.97;7398125;19;1206;-45
2023/11/10 07:05:55;;;;;;;;;;;;;;;20.11;50.68;101193.50;7393704;19;1501;-42
2023/11/10 07:08:25;;;;;;;;;;;;;;;20.21;53.26;101205.19;7390757;19;1498;-42
2023/11/10 07:10:57;;;;;;;;;;;;;;;20.14;52.99;101204.00;7394343;19;1480;-42
2023/11/10 07:13:26;;;;;;;;;;;;;;;20.23;53.25;101208.59;7395706;19;1851;-42
2023/11/10 07:15:54;;;;;;;;;;;;;;;20.17;53.24;101198.34;7397456;19;1358;-42
2023/11/10 07:18:25;;;;;;;;;;;;;;;20.18;53.21;101210.81;7397085;19;1534;-42
2023/11/10 07:20:54;;;;;;;;;;;;;;;20.19;53.25;101195.53;7398030;19;1530;-42
2023/11/10 07:23:22;;;;;;;;;;;;;;;20.18;53.28;101188.47;7397670;19;1506;-42
2023/11/10 07:25:52;;;;;;;;;;;;;;;20.15;53.22;101189.56;7395576;19;2447;-42
2023/11/10 07:28:20;;;;;;;;;;;;;;;20.20;53.25;101183.81;7395226;19;1760;-42
2023/11/10 07:30:49;;;;;;;;;;;;;;;20.24;53.25;101196.84;7396251;19;1300;-42
2023/11/10 07:33:17;;;;;;;;;;;;;;;20.24;53.44;101187.94;7396036;19;1844;-42
2023/11/10 07:35:48;;;;;;;;;;;;;;;20.29;53.06;101179.47;7393493;19;1610;-42
2023/11/10 07:38:16;;;;;;;;;;;;;;;20.39;53.22;101180.38;7394355;19;1565;-42
2023/11/10 07:40:45;;;;;;;;;;;;;;;20.54;52.88;101160.22;7394788;19;2443;-42
2023/11/10 07:43:17;;;;;;;;;;;;;;;20.50;52.77;101160.63;7395999;19;1474;-42
2023/11/10 07:45:46;;;;;;;;;;;;;;;20.52;53.11;101156.81;7394147;19;1366;-42
2023/11/10 07:48:15;;;;;;;;;;;;;;;20.38;53.44;101147.28;7395133;19;1545;-42
2023/11/10 07:50:44;;;;;;;;;;;;;;;20.30;53.81;101149.81;7395482;19;1529;-42
2023/11/10 07:53:15;;;;;;;;;;;;;;;20.24;54.15;101153.88;7394707;19;1843;-42
2023/11/10 07:55:43;;;;;;;;;;;;;;;20.19;54.38;101142.69;7394779;19;1529;-42
2023/11/10 07:58:11;;;;;;;;;;;;;;;20.22;54.29;101149.63;7394864;19;1479;-42
2023/11/10 08:00:40;;;;;;;;;;;;;;;20.25;53.99;101139.47;7392425;19;1471;-42
2023/11/10 08:03:08;;;;;;;;;;;;;;;20.33;54.21;101135.25;7396827;19;1365;-42
2023/11/10 08:05:37;;;;;;;;;;;;;;;20.40;53.95;101123.00;7392861;19;1491;-42
2023/11/10 08:08:06;;;;;;;;;;;;;;;20.45;53.80;101126.09;7396613;19;1559;-42
2023/11/10 08:10:37;;;;;;;;;;;;;;;20.63;53.50;101132.56;7395045;19;1546;-42
2023/11/10 08:13:06;;;;;;;;;;;;;;;20.77;53.37;101125.97;7395570;19;1849;-42
2023/11/10 08:15:34;;;;;;;;;;;;;;;20.84;53.16;101131.63;7395539;19;1534;-42
2023/11/10 08:18:29;;;;;;;;;;;;;;;20.86;52.94;101125.09;7392027;19;1440;-42
2023/11/10 08:20:58;;;;;;;;;;;;;;;20.91;53.03;101121.16;7391562;19;2474;-42
2023/11/10 08:23:26;;;;;;;;;;;;;;;20.91;53.09;101119.34;7396084;19;1584;-42
2023/11/10 08:25:57;;;;;;;;;;;;;;;20.86;53.30;101110.81;7395491;19;1911;-41
2023/11/10 08:28:26;;;;;;;;;;;;;;;20.83;53.40;101103.03;7394754;19;1359;-42
2023/11/10 08:30:54;;;;;;;;;;;;;;;20.78;53.35;101103.44;7394372;19;1527;-42
2023/11/10 08:33:23;;;;;;;;;;;;;;;20.84;53.44;101126.25;7395484;19;1856;-42
2023/11/10 08:35:51;;;;;;;;;;;;;;;20.74;54.13;101107.41;7394329;19;1577;-42
2023/11/10 08:38:20;;;;;;;;;;;;;;;20.74;54.03;101090.44;7394594;19;1613;-42
2023/11/10 08:40:49;;;;;;;;;;;;;;;20.74;54.10;101111.94;7392974;19;1527;-42
2023/11/10 08:43:19;;;;;;;;;;;;;;;20.68;54.14;101110.66;7393060;19;1538;-42
2023/11/10 08:45:48;;;;;;;;;;;;;;;20.74;54.19;101101.19;7393044;19;1543;-42
2023/11/10 08:48:16;;;;;;;;;;;;;;;20.81;54.07;101076.31;7393024;19;1391;-42
2023/11/10 08:50:44;;;;;;;;;;;;;;;20.90;53.49;101092.59;7393728;19;1691;-42
2023/11/10 08:53:15;;;;;;;;;;;;;;;20.86;53.79;101074.03;7393514;19;1855;-42
2023/11/10 08:55:43;;;;;;;;;;;;;;;20.80;54.05;101076.44;7393294;19;1558;-42
2023/11/10 08:58:13;;;;;;;;;;;;;;;20.77;54.31;101065.94;7393616;19;1374;-42
2023/11/10 09:00:46;;;;;;;;;;;;;;;20.76;54.24;101069.66;7393296;19;1555;-42
2023/11/10 09:03:14;;;;;;;;;;;;;;;20.76;54.17;101075.03;7395170;19;1012;-42
2023/11/10 09:05:42;;;;;;;;;;;;;;;20.76;54.31;101065.13;7392571;19;1655;-42
2023/11/10 09:08:11;;;;;;;;;;;;;;;20.78;54.36;101056.91;7392251;19;1371;-42
2023/11/10 09:10:39;;;;;;;;;;;;;;;20.74;54.54;101050.97;7390958;19;1413;-42
2023/11/10 09:13:07;;;;;;;;;;;;;;;20.78;54.53;101046.16;7393325;19;2120;-42
2023/11/10 09:15:36;;;;;;;;;;;;;;;20.76;54.45;101048.16;7392393;19;1564;-42
2023/11/10 09:18:07;;;;;;;;;;;;;;;20.84;54.27;101040.22;7392623;19;1375;-42
2023/11/10 09:20:35;;;;;;;;;;;;;;;20.94;54.21;101046.44;7393737;19;1403;-42
2023/11/10 09:23:03;;;;;;;;;;;;;;;21.05;53.97;101046.31;7392271;19;1504;-42
2023/11/10 09:25:32;;;;;;;;;;;;;;;21.00;53.88;101036.97;7390341;19;1448;-42
2023/11/10 09:28:01;;;;;;;;;;;;;;;21.01;53.87;101031.47;7388973;19;1816;-42
2023/11/10 09:30:30;;;;;;;;;;;;;;;21.06;53.90;101033.72;7392094;19;1471;-42
2023/11/10 09:32:59;;;;;;;;;;;;;;;21.02;54.20;101033.13;7393014;19;1477;-42
2023/11/10 09:35:32;;;;;;;;;;;;;;;21.00;54.17;101032.44;7391115;19;1855;-42
2023/11/10 09:38:00;;;;;;;;;;;;;;;21.01;53.85;101022.56;7392393;19;1567;-42
2023/11/10 09:40:28;;;;;;;;;;;;;;;20.98;54.48;101028.19;7390518;19;1392;-42
2023/11/10 09:42:58;;;;;;;;;;;;;;;20.94;54.49;101032.16;7391967;19;1489;-42
2023/11/10 09:45:27;;;;;;;;;;;;;;;20.93;54.35;101025.94;7391769;19;1169;-42
2023/11/10 09:47:57;;;;;;;;;;;;;;;20.91;54.48;101019.88;7390695;19;1533;-42
2023/11/10 09:50:26;;;;;;;;;;;;;;;20.88;54.74;101022.81;7392664;19;1561;-42
2023/11/10 09:52:58;;;;;;;;;;;;;;;20.84;55.06;101018.72;7388354;19;1500;-42
2023/11/10 09:55:27;;;;;;;;;;;;;;;20.83;55.00;101014.31;7391182;19;1840;-42
2023/11/10 09:57:56;;;;;;;;;;;;;;;20.86;54.80;101016.75;7387126;19;1468;-42
2023/11/10 10:00:26;;;;;;;;;;;;;;;20.89;54.75;101021.84;7388948;19;1423;-42
2023/11/10 10:02:54;;;;;;;;;;;;;;;20.92;54.88;101010.78;7392440;19;1023;-42
2023/11/10 10:05:22;;;;;;;;;;;;;;;20.88;54.66;100997.78;7391610;19;1550;-42
2023/11/10 10:07:56;;;;;;;;;;;;;;;20.96;54.72;100996.06;7388924;19;1426;-42
2023/11/10 10:10:25;;;;;;;;;;;;;;;20.97;54.57;100983.47;7391261;19;1395;-42
2023/11/10 10:12:53;;;;;;;;;;;;;;;20.95;54.68;100980.94;7390868;19;1483;-42
2023/11/10 10:15:29;;;;;;;;;;;;;;;20.93;54.79;100966.81;7389314;19;1835;-42
2023/11/10 10:17:58;;;;;;;;;;;;;;;20.85;55.10;100978.28;7390000;19;1208;-42
2023/11/10 10:20:26;;;;;;;;;;;;;;;20.83;55.00;100979.38;7389405;19;1482;-42
2023/11/10 10:22:57;;;;;;;;;;;;;;;20.91;54.83;100965.22;7391945;19;1608;-42
2023/11/10 10:25:26;;;;;;;;;;;;;;;20.92;54.79;100966.94;7390506;19;1484;-42
2023/11/10 10:27:56;;;;;;;;;;;;;;;20.87;54.79;100956.63;7391184;19;1597;-42
2023/11/10 10:30:25;;;;;;;;;;;;;;;20.93;55.27;100950.69;7390531;19;1546;-42
2023/11/10 10:32:54;;;;;;;;;;;;;;;20.94;54.78;100960.41;7390354;19;1579;-45
2023/11/10 10:35:23;;;;;;;;;;;;;;;20.98;55.48;100943.00;7386196;19;1854;-45
2023/11/10 10:37:54;;;;;;;;;;;;;;;21.01;55.04;100952.66;7389244;19;1651;-45
2023/11/10 10:40:26;;;;;;;;;;;;;;;20.95;54.64;100929.88;7390061;19;1423;-45
2023/11/10 10:42:58;;;;;;;;;;;;;;;20.94;55.40;100938.91;7387937;19;1443;-45
2023/11/10 10:45:27;;;;;;;;;;;;;;;20.98;55.26;100939.47;7389593;19;1578;-45
2023/11/10 10:47:58;;;;;;;;;;;;;;;20.97;54.26;100935.09;7388333;19;1531;-45
2023/11/10 10:50:27;;;;;;;;;;;;;;;20.98;54.44;100920.66;7388313;19;1451;-45
2023/11/10 10:52:57;;;;;;;;;;;;;;;21.00;55.06;100919.50;7390511;19;1578;-45
2023/11/10 10:55:29;;;;;;;;;;;;;;;21.01;55.38;100926.59;7388103;19;1845;-45
2023/11/10 10:57:58;;;;;;;;;;;;;;;20.99;55.01;100908.91;7388715;19;1531;-42
2023/11/10 11:00:27;;;;;;;;;;;;;;;21.00;54.86;100905.22;7386688;19;1628;-42
2023/11/10 11:02:58;;;;;;;;;;;;;;;20.95;54.59;100908.38;7388881;19;1026;-42
2023/11/10 11:05:44;;;;;;;;;;;;;;;20.99;54.86;100882.88;7389308;19;1584;-42
2023/11/10 11:08:22;;;;;;;;;;;;;;;21.02;54.24;100889.81;7389480;19;1547;-42
2023/11/10 11:11:03;;;;;;;;;;;;;;;20.93;54.64;100880.78;7394808;19;1378;-42
2023/11/10 11:13:39;;;;;;;;;;;;;;;20.84;55.10;100884.31;7398404;19;1486;-42
2023/11/10 11:16:18;;;;;;;;;;;;;;;20.90;55.07;100866.78;7398374;19;1812;-42
2023/11/10 11:18:58;;;;;;;;;;;;;;;20.90;55.04;100881.06;7398673;19;1554;-42
2023/11/10 11:21:27;;;;;;;;;;;;;;;20.88;55.41;100874.13;7396507;19;1489;-43
2023/11/10 11:23:56;;;;;;;;;;;;;;;20.85;55.28;100867.22;7396125;19;1476;-42
2023/11/10 11:26:27;;;;;;;;;;;;;;;20.94;55.28;100868.19;7398911;19;1558;-42
2023/11/10 11:29:04;;;;;;;;;;;;;;;20.94;55.25;100858.25;7397143;19;1407;-42
2023/11/10 11:31:41;;;;;;;;;;;;;;;20.90;54.93;100861.41;7399562;19;1551;-43
2023/11/10 11:34:09;;;;;;;;;;;;;;;20.94;54.98;100858.25;7397346;19;1853;-42
2023/11/10 11:36:39;;;;;;;;;;;;;;;20.88;55.59;100868.78;7397230;19;1621;-42
2023/11/10 11:39:07;;;;;;;;;;;;;;;20.89;55.25;100849.81;7396216;19;1553;-42
2023/11/10 11:41:40;;;;;;;;;;;;;;;20.98;54.89;100848.91;7396961;19;1461;-42
2023/11/10 11:44:09;;;;;;;;;;;;;;;20.98;54.83;100843.53;7396194;19;1627;-42
2023/11/10 11:46:41;;;;;;;;;;;;;;;20.93;54.99;100839.59;7395609;19;1580;-42
2023/11/10 11:49:10;;;;;;;;;;;;;;;20.89;55.19;100840.88;7396049;19;1609;-42
2023/11/10 11:51:39;;;;;;;;;;;;;;;20.94;55.32;100830.53;7396799;19;1552;-42
2023/11/10 11:54:09;;;;;;;;;;;;;;;21.02;55.24;100828.81;7393702;19;1859;-42
2023/11/10 11:56:40;;;;;;;;;;;;;;;20.95;54.97;100811.59;7394720;19;1570;-42
2023/11/10 11:59:09;;;;;;;;;;;;;;;20.86;55.34;100796.34;7394204;19;1521;-42
2023/11/10 12:01:39;;;;;;;;;;;;;;;20.90;55.53;100799.56;7392227;19;1741;-42
2023/11/10 12:04:08;;;;;;;;;;;;;;;20.95;55.23;100792.78;7397071;19;1237;-42
2023/11/10 12:06:36;;;;;;;;;;;;;;;21.04;55.15;100783.78;7394106;19;1593;-42
2023/11/10 12:09:06;;;;;;;;;;;;;;;21.03;54.89;100767.84;7395187;19;1434;-42
2023/11/10 12:11:35;;;;;;;;;;;;;;;21.12;54.76;100768.78;7392647;19;2594;-42
2023/11/10 12:14:08;;;;;;;;;;;;;;;21.01;55.16;100743.78;7395753;19;1856;-42
2023/11/10 12:16:36;;;;;;;;;;;;;;;21.00;55.26;100760.06;7395021;19;1531;-42
2023/11/10 12:19:05;;;;;;;;;;;;;;;21.00;55.15;100755.53;7393410;19;1532;-42
2023/11/10 12:21:33;;;;;;;;;;;;;;;20.97;55.08;100750.44;7393461;19;1506;-42
2023/11/10 12:24:03;;;;;;;;;;;;;;;21.00;55.12;100741.25;7394994;19;1522;-42
2023/11/10 12:26:35;;;;;;;;;;;;;;;21.02;55.30;100741.94;7394014;19;1553;-43
2023/11/10 12:29:09;;;;;;;;;;;;;;;20.93;55.75;100737.44;7394647;19;1080;-42
2023/11/10 12:31:38;;;;;;;;;;;;;;;20.88;55.65;100719.09;7395937;19;1036;-42
2023/11/10 12:34:07;;;;;;;;;;;;;;;20.96;55.61;100735.31;7394904;19;1561;-42
2023/11/10 12:36:36;;;;;;;;;;;;;;;20.92;55.47;100712.41;7395817;19;1497;-42
2023/11/10 12:39:06;;;;;;;;;;;;;;;20.98;55.61;100713.66;7295136;19;13883;-42
2023/11/10 12:41:35;;;;;;;;;;;;;;;21.05;55.41;100715.59;7393884;19;1518;-42
2023/11/10 12:44:03;;;;;;;;;;;;;;;21.00;55.25;100696.38;7394578;19;1562;-42
2023/11/10 12:46:35;;;;;;;;;;;;;;;21.08;55.30;100718.97;7394466;19;1634;-42
2023/11/10 12:49:04;;;;;;;;;;;;;;;21.09;55.32;100710.78;7393362;19;1597;-42
2023/11/10 12:51:32;;;;;;;;;;;;;;;21.12;55.38;100712.31;7393656;19;1389;-42
2023/11/10 12:54:05;;;;;;;;;;;;;;;21.03;55.63;100711.38;7392704;19;1491;-42
2023/11/10 12:56:33;;;;;;;;;;;;;;;21.08;55.58;100717.13;7391836;19;1849;-42
2023/11/10 12:59:03;;;;;;;;;;;;;;;21.05;55.36;100715.59;7392187;19;1494;-42